sensor_id;sensor_type;location;lat;lon;timestamp;temperature;humidity
52285;DHT22;38238;53.304;6.606;2023-02-10T00:03:36;1.30;99.90
52285;DHT22;38238;53.304;6.606;2023-02-10T00:06:03;2.00;99.90
52285;DHT22;38238;53.304;6.606;2023-02-10T00:08:29;1.30;99.90
52285;DHT22;38238;53.304;6.606;2023-02-10T00:11:00;1.30;99.90
52285;DHT22;38238;53.304;6.606;2023-02-10T00:13:26;1.30;99.90
52285;DHT22;38238;53.304;6.606;2023-02-10T00:15:52;1.80;99.90
52285;DHT22;38238;53.304;6.606;2023-02-10T00:18:17;1.40;99.90
52285;DHT22;38238;53.304;6.606;2023-02-10T00:20:43;1.30;99.90
52285;DHT22;38238;53.304;6.606;2023-02-10T00:23:09;1.30;99.90
52285;DHT22;38238;53.304;6.606;2023-02-10T00:25:35;1.30;99.90
52285;DHT22;38238;53.304;6.606;2023-02-10T00:28:02;1.30;99.90
52285;DHT22;38238;53.304;6.606;2023-02-10T00:30:28;1.30;99.90
52285;DHT22;38238;53.304;6.606;2023-02-10T00:32:54;1.30;99.90
52285;DHT22;38238;53.304;6.606;2023-02-10T00:35:19;2.20;99.90
52285;DHT22;38238;53.304;6.606;2023-02-10T00:37:45;1.40;99.90
52285;DHT22;38238;53.304;6.606;2023-02-10T00:40:11;1.30;99.90
52285;DHT22;38238;53.304;6.606;2023-02-10T00:42:36;1.50;99.90
52285;DHT22;38238;53.304;6.606;2023-02-10T00:45:03;1.30;99.90
52285;DHT22;38238;53.304;6.606;2023-02-10T00:47:28;1.30;99.90
52285;DHT22;38238;53.304;6.606;2023-02-10T00:49:54;2.00;99.90
52285;DHT22;38238;53.304;6.606;2023-02-10T00:52:21;1.30;99.90
52285;DHT22;38238;53.304;6.606;2023-02-10T00:54:47;1.30;99.90
52285;DHT22;38238;53.304;6.606;2023-02-10T00:57:13;1.70;99.90
52285;DHT22;38238;53.304;6.606;2023-02-10T00:59:38;1.30;99.90
52285;DHT22;38238;53.304;6.606;2023-02-10T01:02:04;1.30;99.90
52285;DHT22;38238;53.304;6.606;2023-02-10T01:04:30;1.40;99.90
52285;DHT22;38238;53.304;6.606;2023-02-10T01:06:55;2.50;99.90
52285;DHT22;38238;53.304;6.606;2023-02-10T01:09:21;1.40;99.90
52285;DHT22;38238;53.304;6.606;2023-02-10T01:11:47;2.30;99.90
52285;DHT22;38238;53.304;6.606;2023-02-10T01:14:13;2.70;99.90
52285;DHT22;38238;53.304;6.606;2023-02-10T01:16:39;1.30;99.90
52285;DHT22;38238;53.304;6.606;2023-02-10T01:19:04;1.40;99.90
52285;DHT22;38238;53.304;6.606;2023-02-10T01:21:32;1.30;99.90
52285;DHT22;38238;53.304;6.606;2023-02-10T01:23:59;1.60;99.90
52285;DHT22;38238;53.304;6.606;2023-02-10T01:26:25;1.30;99.90
52285;DHT22;38238;53.304;6.606;2023-02-10T01:28:51;1.30;99.90
52285;DHT22;38238;53.304;6.606;2023-02-10T01:31:19;2.50;99.90
52285;DHT22;38238;53.304;6.606;2023-02-10T01:33:46;2.00;99.90
52285;DHT22;38238;53.304;6.606;2023-02-10T01:36:14;2.50;99.90
52285;DHT22;38238;53.304;6.606;2023-02-10T01:38:41;1.20;99.90
52285;DHT22;38238;53.304;6.606;2023-02-10T01:41:08;2.40;99.90
52285;DHT22;38238;53.304;6.606;2023-02-10T01:46:33;1.20;99.90
52285;DHT22;38238;53.304;6.606;2023-02-10T01:49:05;1.20;99.90
52285;DHT22;38238;53.304;6.606;2023-02-10T01:54:16;1.20;99.90
52285;DHT22;38238;53.304;6.606;2023-02-10T01:56:43;1.20;99.90
52285;DHT22;38238;53.304;6.606;2023-02-10T01:59:09;2.40;99.90
52285;DHT22;38238;53.304;6.606;2023-02-10T02:01:35;2.00;99.90
52285;DHT22;38238;53.304;6.606;2023-02-10T02:04:01;1.30;99.90
52285;DHT22;38238;53.304;6.606;2023-02-10T02:06:27;1.20;99.90
52285;DHT22;38238;53.304;6.606;2023-02-10T02:08:54;1.50;99.90
52285;DHT22;38238;53.304;6.606;2023-02-10T02:11:39;1.20;99.90
52285;DHT22;38238;53.304;6.606;2023-02-10T02:14:43;1.20;99.90
52285;DHT22;38238;53.304;6.606;2023-02-10T02:17:38;1.20;99.90
52285;DHT22;38238;53.304;6.606;2023-02-10T02:34:18;1.10;99.90
52285;DHT22;38238;53.304;6.606;2023-02-10T02:36:59;1.10;99.90
52285;DHT22;38238;53.304;6.606;2023-02-10T02:39:27;1.10;99.90
52285;DHT22;38238;53.304;6.606;2023-02-10T02:44:37;1.10;99.90
52285;DHT22;38238;53.304;6.606;2023-02-10T02:56:18;1.00;99.90
52285;DHT22;38238;53.304;6.606;2023-02-10T02:58:59;1.00;99.90
52285;DHT22;38238;53.304;6.606;2023-02-10T03:01:36;1.00;99.90
52285;DHT22;38238;53.304;6.606;2023-02-10T03:04:04;1.00;99.90
52285;DHT22;38238;53.304;6.606;2023-02-10T03:06:30;1.00;99.90
52285;DHT22;38238;53.304;6.606;2023-02-10T03:08:56;1.80;99.90
52285;DHT22;38238;53.304;6.606;2023-02-10T03:11:21;1.00;99.90
52285;DHT22;38238;53.304;6.606;2023-02-10T03:13:47;1.00;99.90
52285;DHT22;38238;53.304;6.606;2023-02-10T03:16:13;1.60;99.90
52285;DHT22;38238;53.304;6.606;2023-02-10T03:18:39;1.00;99.90
52285;DHT22;38238;53.304;6.606;2023-02-10T03:21:05;1.50;99.90
52285;DHT22;38238;53.304;6.606;2023-02-10T03:23:31;1.10;99.90
52285;DHT22;38238;53.304;6.606;2023-02-10T03:26:00;1.90;99.90
52285;DHT22;38238;53.304;6.606;2023-02-10T03:28:26;1.10;99.90
52285;DHT22;38238;53.304;6.606;2023-02-10T03:30:53;1.80;99.90
52285;DHT22;38238;53.304;6.606;2023-02-10T03:33:19;1.80;99.90
52285;DHT22;38238;53.304;6.606;2023-02-10T03:35:45;2.20;99.90
52285;DHT22;38238;53.304;6.606;2023-02-10T03:38:12;2.50;99.90
52285;DHT22;38238;53.304;6.606;2023-02-10T03:40:38;1.60;99.90
52285;DHT22;38238;53.304;6.606;2023-02-10T03:43:04;1.00;99.90
52285;DHT22;38238;53.304;6.606;2023-02-10T03:45:30;1.10;99.90
52285;DHT22;38238;53.304;6.606;2023-02-10T03:47:56;1.10;99.90
52285;DHT22;38238;53.304;6.606;2023-02-10T03:50:22;1.00;99.90
52285;DHT22;38238;53.304;6.606;2023-02-10T03:52:47;1.70;99.90
52285;DHT22;38238;53.304;6.606;2023-02-10T03:55:13;1.00;99.90
52285;DHT22;38238;53.304;6.606;2023-02-10T03:57:43;1.30;99.90
52285;DHT22;38238;53.304;6.606;2023-02-10T04:00:10;1.10;99.90
52285;DHT22;38238;53.304;6.606;2023-02-10T04:02:36;1.10;99.90
52285;DHT22;38238;53.304;6.606;2023-02-10T04:05:02;1.10;99.90
52285;DHT22;38238;53.304;6.606;2023-02-10T04:07:28;1.10;99.90
52285;DHT22;38238;53.304;6.606;2023-02-10T04:09:53;1.10;99.90
52285;DHT22;38238;53.304;6.606;2023-02-10T04:12:19;1.90;99.90
52285;DHT22;38238;53.304;6.606;2023-02-10T04:14:45;1.30;99.90
52285;DHT22;38238;53.304;6.606;2023-02-10T04:17:10;1.50;99.90
52285;DHT22;38238;53.304;6.606;2023-02-10T04:19:36;2.20;99.90
52285;DHT22;38238;53.304;6.606;2023-02-10T04:22:02;1.20;99.90
52285;DHT22;38238;53.304;6.606;2023-02-10T04:24:28;1.20;99.90
52285;DHT22;38238;53.304;6.606;2023-02-10T04:26:54;1.20;99.90
52285;DHT22;38238;53.304;6.606;2023-02-10T04:29:19;1.20;99.90
52285;DHT22;38238;53.304;6.606;2023-02-10T04:31:45;1.20;99.90
52285;DHT22;38238;53.304;6.606;2023-02-10T04:34:11;1.20;99.90
52285;DHT22;38238;53.304;6.606;2023-02-10T04:36:36;1.80;99.90
52285;DHT22;38238;53.304;6.606;2023-02-10T04:39:02;1.20;99.90
52285;DHT22;38238;53.304;6.606;2023-02-10T04:41:28;1.20;99.90
52285;DHT22;38238;53.304;6.606;2023-02-10T04:43:53;1.20;99.90
52285;DHT22;38238;53.304;6.606;2023-02-10T04:46:19;2.10;99.90
52285;DHT22;38238;53.304;6.606;2023-02-10T04:48:45;1.20;99.90
52285;DHT22;38238;53.304;6.606;2023-02-10T04:51:11;1.10;99.90
52285;DHT22;38238;53.304;6.606;2023-02-10T04:53:39;1.40;99.90
52285;DHT22;38238;53.304;6.606;2023-02-10T04:56:05;1.50;99.90
52285;DHT22;38238;53.304;6.606;2023-02-10T04:58:31;1.10;99.90
52285;DHT22;38238;53.304;6.606;2023-02-10T05:00:57;1.40;99.90
52285;DHT22;38238;53.304;6.606;2023-02-10T05:03:24;1.10;99.90
52285;DHT22;38238;53.304;6.606;2023-02-10T05:05:50;1.10;99.90
52285;DHT22;38238;53.304;6.606;2023-02-10T05:08:18;2.10;99.90
52285;DHT22;38238;53.304;6.606;2023-02-10T05:10:52;1.90;99.90
52285;DHT22;38238;53.304;6.606;2023-02-10T05:13:18;1.20;99.90
52285;DHT22;38238;53.304;6.606;2023-02-10T05:15:46;1.80;99.90
52285;DHT22;38238;53.304;6.606;2023-02-10T05:18:11;1.10;99.90
52285;DHT22;38238;53.304;6.606;2023-02-10T05:20:37;2.50;99.90
52285;DHT22;38238;53.304;6.606;2023-02-10T05:23:03;1.10;99.90
52285;DHT22;38238;53.304;6.606;2023-02-10T05:25:29;1.80;99.90
52285;DHT22;38238;53.304;6.606;2023-02-10T05:27:54;2.60;99.90
52285;DHT22;38238;53.304;6.606;2023-02-10T05:30:20;1.20;99.90
52285;DHT22;38238;53.304;6.606;2023-02-10T05:32:46;1.20;99.90
52285;DHT22;38238;53.304;6.606;2023-02-10T05:35:12;1.50;99.90
52285;DHT22;38238;53.304;6.606;2023-02-10T05:37:37;1.20;99.90
52285;DHT22;38238;53.304;6.606;2023-02-10T05:40:04;2.40;99.90
52285;DHT22;38238;53.304;6.606;2023-02-10T05:42:30;1.30;99.90
52285;DHT22;38238;53.304;6.606;2023-02-10T05:44:56;3.20;99.90
52285;DHT22;38238;53.304;6.606;2023-02-10T05:47:21;1.30;99.90
52285;DHT22;38238;53.304;6.606;2023-02-10T05:49:47;1.40;99.90
52285;DHT22;38238;53.304;6.606;2023-02-10T05:52:13;1.40;99.90
52285;DHT22;38238;53.304;6.606;2023-02-10T05:54:39;1.40;99.90
52285;DHT22;38238;53.304;6.606;2023-02-10T05:57:06;1.50;99.90
52285;DHT22;38238;53.304;6.606;2023-02-10T05:59:32;2.80;99.90
52285;DHT22;38238;53.304;6.606;2023-02-10T06:01:58;1.50;99.90
52285;DHT22;38238;53.304;6.606;2023-02-10T06:04:24;2.50;99.90
52285;DHT22;38238;53.304;6.606;2023-02-10T06:06:49;1.50;99.90
52285;DHT22;38238;53.304;6.606;2023-02-10T06:09:16;1.80;99.90
52285;DHT22;38238;53.304;6.606;2023-02-10T06:11:41;1.60;99.90
52285;DHT22;38238;53.304;6.606;2023-02-10T06:14:07;2.40;99.90
52285;DHT22;38238;53.304;6.606;2023-02-10T06:16:33;2.20;99.90
52285;DHT22;38238;53.304;6.606;2023-02-10T06:18:59;3.00;99.90
52285;DHT22;38238;53.304;6.606;2023-02-10T06:21:25;1.80;99.90
52285;DHT22;38238;53.304;6.606;2023-02-10T06:23:51;1.80;99.90
52285;DHT22;38238;53.304;6.606;2023-02-10T06:26:17;2.00;99.90
52285;DHT22;38238;53.304;6.606;2023-02-10T06:28:43;1.80;99.90
52285;DHT22;38238;53.304;6.606;2023-02-10T06:31:09;2.60;99.90
52285;DHT22;38238;53.304;6.606;2023-02-10T06:33:35;2.80;99.90
52285;DHT22;38238;53.304;6.606;2023-02-10T06:36:02;3.00;99.90
52285;DHT22;38238;53.304;6.606;2023-02-10T06:38:31;1.80;99.90
52285;DHT22;38238;53.304;6.606;2023-02-10T06:40:58;2.20;99.90
52285;DHT22;38238;53.304;6.606;2023-02-10T06:43:24;3.40;99.90
52285;DHT22;38238;53.304;6.606;2023-02-10T06:45:49;3.50;99.90
52285;DHT22;38238;53.304;6.606;2023-02-10T06:48:15;1.90;99.90
52285;DHT22;38238;53.304;6.606;2023-02-10T06:50:41;1.90;99.90
52285;DHT22;38238;53.304;6.606;2023-02-10T06:53:06;3.20;99.90
52285;DHT22;38238;53.304;6.606;2023-02-10T06:55:32;2.40;99.90
52285;DHT22;38238;53.304;6.606;2023-02-10T06:57:59;2.00;99.90
52285;DHT22;38238;53.304;6.606;2023-02-10T07:00:25;2.00;99.90
52285;DHT22;38238;53.304;6.606;2023-02-10T07:02:51;2.00;99.90
52285;DHT22;38238;53.304;6.606;2023-02-10T07:05:16;2.10;99.90
52285;DHT22;38238;53.304;6.606;2023-02-10T07:07:42;2.00;99.90
52285;DHT22;38238;53.304;6.606;2023-02-10T07:10:09;3.40;99.90
52285;DHT22;38238;53.304;6.606;2023-02-10T07:12:35;2.10;99.90
52285;DHT22;38238;53.304;6.606;2023-02-10T07:15:01;2.10;99.90
52285;DHT22;38238;53.304;6.606;2023-02-10T07:17:27;2.20;99.90
52285;DHT22;38238;53.304;6.606;2023-02-10T07:19:52;2.20;99.90
52285;DHT22;38238;53.304;6.606;2023-02-10T07:22:18;3.40;99.90
52285;DHT22;38238;53.304;6.606;2023-02-10T07:24:44;2.20;99.90
52285;DHT22;38238;53.304;6.606;2023-02-10T07:27:09;2.30;99.90
52285;DHT22;38238;53.304;6.606;2023-02-10T07:29:35;2.50;99.90
52285;DHT22;38238;53.304;6.606;2023-02-10T07:32:01;2.40;99.90
52285;DHT22;38238;53.304;6.606;2023-02-10T07:34:27;3.40;99.90
52285;DHT22;38238;53.304;6.606;2023-02-10T07:36:54;2.40;99.90
52285;DHT22;38238;53.304;6.606;2023-02-10T07:39:21;2.40;99.90
52285;DHT22;38238;53.304;6.606;2023-02-10T07:41:46;2.40;99.90
52285;DHT22;38238;53.304;6.606;2023-02-10T07:44:12;3.40;99.90
52285;DHT22;38238;53.304;6.606;2023-02-10T07:46:38;2.50;99.90
52285;DHT22;38238;53.304;6.606;2023-02-10T07:49:04;2.70;99.90
52285;DHT22;38238;53.304;6.606;2023-02-10T07:51:29;3.70;99.90
52285;DHT22;38238;53.304;6.606;2023-02-10T07:53:55;2.60;99.90
52285;DHT22;38238;53.304;6.606;2023-02-10T07:56:21;2.60;99.90
52285;DHT22;38238;53.304;6.606;2023-02-10T07:58:46;2.60;99.90
52285;DHT22;38238;53.304;6.606;2023-02-10T08:01:12;2.60;99.90
52285;DHT22;38238;53.304;6.606;2023-02-10T08:03:38;2.70;99.90
52285;DHT22;38238;53.304;6.606;2023-02-10T08:06:05;2.70;99.90
52285;DHT22;38238;53.304;6.606;2023-02-10T08:08:31;2.80;99.90
52285;DHT22;38238;53.304;6.606;2023-02-10T08:10:57;2.80;99.90
52285;DHT22;38238;53.304;6.606;2023-02-10T08:13:23;2.90;99.90
52285;DHT22;38238;53.304;6.606;2023-02-10T08:15:50;3.70;99.90
52285;DHT22;38238;53.304;6.606;2023-02-10T08:18:16;3.40;99.90
52285;DHT22;38238;53.304;6.606;2023-02-10T08:20:42;3.40;99.90
52285;DHT22;38238;53.304;6.606;2023-02-10T08:23:14;3.00;99.90
52285;DHT22;38238;53.304;6.606;2023-02-10T08:25:39;3.10;99.90
52285;DHT22;38238;53.304;6.606;2023-02-10T08:28:05;3.60;99.90
52285;DHT22;38238;53.304;6.606;2023-02-10T08:30:31;3.10;99.90
52285;DHT22;38238;53.304;6.606;2023-02-10T08:32:57;3.30;99.90
52285;DHT22;38238;53.304;6.606;2023-02-10T08:35:23;4.50;99.90
52285;DHT22;38238;53.304;6.606;2023-02-10T08:37:49;3.50;99.90
52285;DHT22;38238;53.304;6.606;2023-02-10T08:40:15;3.10;99.90
52285;DHT22;38238;53.304;6.606;2023-02-10T08:42:41;4.20;99.90
52285;DHT22;38238;53.304;6.606;2023-02-10T08:45:07;3.20;99.90
52285;DHT22;38238;53.304;6.606;2023-02-10T08:47:33;3.20;99.90
52285;DHT22;38238;53.304;6.606;2023-02-10T08:49:59;3.20;99.90
52285;DHT22;38238;53.304;6.606;2023-02-10T08:52:25;3.20;99.90
52285;DHT22;38238;53.304;6.606;2023-02-10T08:54:51;3.70;99.90
52285;DHT22;38238;53.304;6.606;2023-02-10T08:57:17;3.20;99.90
52285;DHT22;38238;53.304;6.606;2023-02-10T08:59:43;3.30;99.90
52285;DHT22;38238;53.304;6.606;2023-02-10T09:02:12;3.80;99.90
52285;DHT22;38238;53.304;6.606;2023-02-10T09:04:39;3.30;99.90
52285;DHT22;38238;53.304;6.606;2023-02-10T09:07:05;3.40;99.90
52285;DHT22;38238;53.304;6.606;2023-02-10T09:09:31;3.50;99.90
52285;DHT22;38238;53.304;6.606;2023-02-10T09:11:56;4.60;99.90
52285;DHT22;38238;53.304;6.606;2023-02-10T09:14:22;3.60;99.90
52285;DHT22;38238;53.304;6.606;2023-02-10T09:16:48;3.70;99.90
52285;DHT22;38238;53.304;6.606;2023-02-10T09:19:13;4.90;99.90
52285;DHT22;38238;53.304;6.606;2023-02-10T09:21:39;3.80;99.90
52285;DHT22;38238;53.304;6.606;2023-02-10T09:24:05;4.00;99.90
52285;DHT22;38238;53.304;6.606;2023-02-10T09:26:31;3.90;99.90
52285;DHT22;38238;53.304;6.606;2023-02-10T09:28:56;3.90;99.90
52285;DHT22;38238;53.304;6.606;2023-02-10T09:31:23;4.30;99.90
52285;DHT22;38238;53.304;6.606;2023-02-10T09:33:49;4.00;99.90
52285;DHT22;38238;53.304;6.606;2023-02-10T09:36:18;4.10;99.90
52285;DHT22;38238;53.304;6.606;2023-02-10T09:38:44;4.20;99.90
52285;DHT22;38238;53.304;6.606;2023-02-10T09:41:15;4.80;99.90
52285;DHT22;38238;53.304;6.606;2023-02-10T09:57:57;4.80;99.90
52285;DHT22;38238;53.304;6.606;2023-02-10T10:00:30;5.50;99.90
52285;DHT22;38238;53.304;6.606;2023-02-10T10:02:58;4.90;99.90
52285;DHT22;38238;53.304;6.606;2023-02-10T10:08:00;5.00;99.90
52285;DHT22;38238;53.304;6.606;2023-02-10T10:10:37;5.10;99.90
52285;DHT22;38238;53.304;6.606;2023-02-10T10:13:33;5.20;99.90
52285;DHT22;38238;53.304;6.606;2023-02-10T10:18:53;5.40;99.90
52285;DHT22;38238;53.304;6.606;2023-02-10T10:26:59;7.30;99.90
52285;DHT22;38238;53.304;6.606;2023-02-10T10:29:54;7.90;99.90
52285;DHT22;38238;53.304;6.606;2023-02-10T10:32:38;8.30;99.90
52285;DHT22;38238;53.304;6.606;2023-02-10T10:35:11;8.70;99.90
52285;DHT22;38238;53.304;6.606;2023-02-10T10:37:39;9.00;99.90
52285;DHT22;38238;53.304;6.606;2023-02-10T10:40:07;9.30;99.90
52285;DHT22;38238;53.304;6.606;2023-02-10T10:42:48;9.50;99.90
52285;DHT22;38238;53.304;6.606;2023-02-10T10:45:41;9.60;99.90
52285;DHT22;38238;53.304;6.606;2023-02-10T10:48:15;9.70;99.90
52285;DHT22;38238;53.304;6.606;2023-02-10T10:50:42;9.70;99.90
52285;DHT22;38238;53.304;6.606;2023-02-10T10:56:02;9.70;99.90
52285;DHT22;38238;53.304;6.606;2023-02-10T10:58:36;9.80;99.90
52285;DHT22;38238;53.304;6.606;2023-02-10T11:01:02;9.40;99.90
52285;DHT22;38238;53.304;6.606;2023-02-10T11:03:29;9.80;99.90
52285;DHT22;38238;53.304;6.606;2023-02-10T11:06:15;9.80;99.90
52285;DHT22;38238;53.304;6.606;2023-02-10T11:08:53;10.10;99.90
52285;DHT22;38238;53.304;6.606;2023-02-10T11:11:40;10.00;99.90
52285;DHT22;38238;53.304;6.606;2023-02-10T11:14:18;8.40;99.90
52285;DHT22;38238;53.304;6.606;2023-02-10T11:16:54;9.80;99.90
52285;DHT22;38238;53.304;6.606;2023-02-10T11:19:28;9.60;99.90
52285;DHT22;38238;53.304;6.606;2023-02-10T11:21:54;9.30;99.90
52285;DHT22;38238;53.304;6.606;2023-02-10T11:24:24;9.00;99.90
52285;DHT22;38238;53.304;6.606;2023-02-10T11:27:06;8.60;99.90
52285;DHT22;38238;53.304;6.606;2023-02-10T11:29:48;8.30;99.90
52285;DHT22;38238;53.304;6.606;2023-02-10T11:32:23;8.20;99.90
52285;DHT22;38238;53.304;6.606;2023-02-10T11:34:51;8.70;99.90
52285;DHT22;38238;53.304;6.606;2023-02-10T11:37:31;9.20;99.90
52285;DHT22;38238;53.304;6.606;2023-02-10T11:39:59;9.60;99.90
52285;DHT22;38238;53.304;6.606;2023-02-10T11:42:34;10.00;99.90
52285;DHT22;38238;53.304;6.606;2023-02-10T11:47:41;10.50;99.90
52285;DHT22;38238;53.304;6.606;2023-02-10T11:50:24;10.30;99.90
52285;DHT22;38238;53.304;6.606;2023-02-10T11:52:50;9.90;99.90
52285;DHT22;38238;53.304;6.606;2023-02-10T11:55:16;9.60;99.90
52285;DHT22;38238;53.304;6.606;2023-02-10T11:57:52;9.70;99.90
52285;DHT22;38238;53.304;6.606;2023-02-10T12:00:50;9.90;99.90
52285;DHT22;38238;53.304;6.606;2023-02-10T12:05:57;9.80;99.90
52285;DHT22;38238;53.304;6.606;2023-02-10T12:09:30;9.50;99.90
52285;DHT22;38238;53.304;6.606;2023-02-10T12:17:26;9.40;99.90
52285;DHT22;38238;53.304;6.606;2023-02-10T12:36:07;9.70;99.90
52285;DHT22;38238;53.304;6.606;2023-02-10T12:44:04;9.60;99.90
52285;DHT22;38238;53.304;6.606;2023-02-10T12:46:58;9.70;99.90
52285;DHT22;38238;53.304;6.606;2023-02-10T12:55:13;9.50;99.90
52285;DHT22;38238;53.304;6.606;2023-02-10T12:57:58;9.60;99.90
52285;DHT22;38238;53.304;6.606;2023-02-10T13:00:39;9.70;99.90
52285;DHT22;38238;53.304;6.606;2023-02-10T13:03:17;9.60;99.90
52285;DHT22;38238;53.304;6.606;2023-02-10T13:05:51;9.70;99.90
52285;DHT22;38238;53.304;6.606;2023-02-10T13:08:24;9.90;99.90
52285;DHT22;38238;53.304;6.606;2023-02-10T13:11:13;9.90;99.90
52285;DHT22;38238;53.304;6.606;2023-02-10T13:13:40;9.90;99.90
52285;DHT22;38238;53.304;6.606;2023-02-10T13:16:13;9.80;99.90
52285;DHT22;38238;53.304;6.606;2023-02-10T13:18:56;9.60;99.90
52285;DHT22;38238;53.304;6.606;2023-02-10T13:21:30;9.40;99.90
52285;DHT22;38238;53.304;6.606;2023-02-10T13:24:15;9.20;99.90
52285;DHT22;38238;53.304;6.606;2023-02-10T13:27:16;8.90;99.90
52285;DHT22;38238;53.304;6.606;2023-02-10T13:35:15;8.70;99.90
52285;DHT22;38238;53.304;6.606;2023-02-10T13:37:54;8.70;99.90
52285;DHT22;38238;53.304;6.606;2023-02-10T13:40:23;8.60;99.90
52285;DHT22;38238;53.304;6.606;2023-02-10T13:43:01;8.50;99.90
52285;DHT22;38238;53.304;6.606;2023-02-10T13:45:33;8.50;99.90
52285;DHT22;38238;53.304;6.606;2023-02-10T13:48:03;8.50;99.90
52285;DHT22;38238;53.304;6.606;2023-02-10T13:50:46;8.50;99.90
52285;DHT22;38238;53.304;6.606;2023-02-10T14:04:01;8.30;99.90
52285;DHT22;38238;53.304;6.606;2023-02-10T14:06:41;8.30;99.90
52285;DHT22;38238;53.304;6.606;2023-02-10T14:09:39;8.30;99.90
52285;DHT22;38238;53.304;6.606;2023-02-10T14:12:23;8.30;99.90
52285;DHT22;38238;53.304;6.606;2023-02-10T14:14:49;8.20;99.90
52285;DHT22;38238;53.304;6.606;2023-02-10T14:17:26;8.10;99.90
52285;DHT22;38238;53.304;6.606;2023-02-10T14:19:57;8.10;99.90
52285;DHT22;38238;53.304;6.606;2023-02-10T14:22:31;8.00;99.90
52285;DHT22;38238;53.304;6.606;2023-02-10T14:25:02;7.90;99.90
52285;DHT22;38238;53.304;6.606;2023-02-10T14:27:30;9.40;99.90
52285;DHT22;38238;53.304;6.606;2023-02-10T14:30:03;7.80;99.90
52285;DHT22;38238;53.304;6.606;2023-02-10T14:32:30;7.80;99.90
52285;DHT22;38238;53.304;6.606;2023-02-10T14:34:58;7.80;99.90
52285;DHT22;38238;53.304;6.606;2023-02-10T14:37:24;7.80;99.90
52285;DHT22;38238;53.304;6.606;2023-02-10T14:39:58;7.80;99.90
52285;DHT22;38238;53.304;6.606;2023-02-10T14:42:27;7.90;99.90
52285;DHT22;38238;53.304;6.606;2023-02-10T14:44:59;7.90;99.90
52285;DHT22;38238;53.304;6.606;2023-02-10T14:47:33;7.90;99.90
52285;DHT22;38238;53.304;6.606;2023-02-10T14:50:00;7.90;99.90
52285;DHT22;38238;53.304;6.606;2023-02-10T14:52:32;7.90;99.90
52285;DHT22;38238;53.304;6.606;2023-02-10T14:54:58;7.90;99.90
52285;DHT22;38238;53.304;6.606;2023-02-10T14:57:25;8.90;99.90
52285;DHT22;38238;53.304;6.606;2023-02-10T14:59:54;7.90;99.90
52285;DHT22;38238;53.304;6.606;2023-02-10T15:02:22;8.10;99.90
52285;DHT22;38238;53.304;6.606;2023-02-10T15:04:51;7.90;99.90
52285;DHT22;38238;53.304;6.606;2023-02-10T15:07:27;7.90;99.90
52285;DHT22;38238;53.304;6.606;2023-02-10T15:09:57;7.90;99.90
52285;DHT22;38238;53.304;6.606;2023-02-10T15:12:24;7.90;99.90
52285;DHT22;38238;53.304;6.606;2023-02-10T15:17:42;7.90;99.90
52285;DHT22;38238;53.304;6.606;2023-02-10T15:22:44;7.80;99.90
52285;DHT22;38238;53.304;6.606;2023-02-10T15:27:51;7.70;99.90
52285;DHT22;38238;53.304;6.606;2023-02-10T15:30:19;7.70;99.90
52285;DHT22;38238;53.304;6.606;2023-02-10T15:32:54;7.70;99.90
52285;DHT22;38238;53.304;6.606;2023-02-10T15:35:20;7.60;99.90
52285;DHT22;38238;53.304;6.606;2023-02-10T15:37:52;7.50;99.90
52285;DHT22;38238;53.304;6.606;2023-02-10T15:40:25;7.40;99.90
52285;DHT22;38238;53.304;6.606;2023-02-10T15:43:20;7.30;99.90
52285;DHT22;38238;53.304;6.606;2023-02-10T15:45:47;7.30;99.90
52285;DHT22;38238;53.304;6.606;2023-02-10T15:48:19;7.10;99.90
52285;DHT22;38238;53.304;6.606;2023-02-10T15:50:45;7.10;99.90
52285;DHT22;38238;53.304;6.606;2023-02-10T15:53:16;7.00;99.90
52285;DHT22;38238;53.304;6.606;2023-02-10T15:55:45;6.90;99.90
52285;DHT22;38238;53.304;6.606;2023-02-10T15:58:11;6.90;99.90
52285;DHT22;38238;53.304;6.606;2023-02-10T16:00:39;6.80;99.90
52285;DHT22;38238;53.304;6.606;2023-02-10T16:03:05;6.80;99.90
52285;DHT22;38238;53.304;6.606;2023-02-10T16:05:32;6.70;99.90
52285;DHT22;38238;53.304;6.606;2023-02-10T16:08:16;6.70;99.90
52285;DHT22;38238;53.304;6.606;2023-02-10T16:10:44;6.60;99.90
52285;DHT22;38238;53.304;6.606;2023-02-10T16:13:13;6.60;99.90
52285;DHT22;38238;53.304;6.606;2023-02-10T16:15:39;6.60;99.90
52285;DHT22;38238;53.304;6.606;2023-02-10T16:18:05;6.60;99.90
52285;DHT22;38238;53.304;6.606;2023-02-10T16:20:32;6.60;99.90
52285;DHT22;38238;53.304;6.606;2023-02-10T16:22:59;6.90;99.90
52285;DHT22;38238;53.304;6.606;2023-02-10T16:25:26;6.60;99.90
52285;DHT22;38238;53.304;6.606;2023-02-10T16:27:53;6.50;99.90
52285;DHT22;38238;53.304;6.606;2023-02-10T16:30:25;6.60;99.90
52285;DHT22;38238;53.304;6.606;2023-02-10T16:32:52;6.50;99.90
52285;DHT22;38238;53.304;6.606;2023-02-10T16:35:18;6.50;99.90
52285;DHT22;38238;53.304;6.606;2023-02-10T16:37:44;6.50;99.90
52285;DHT22;38238;53.304;6.606;2023-02-10T16:40:28;6.50;99.90
52285;DHT22;38238;53.304;6.606;2023-02-10T16:42:55;6.50;99.90
52285;DHT22;38238;53.304;6.606;2023-02-10T16:45:26;6.50;99.90
52285;DHT22;38238;53.304;6.606;2023-02-10T16:47:53;6.40;99.90
52285;DHT22;38238;53.304;6.606;2023-02-10T16:52:55;6.40;99.90
52285;DHT22;38238;53.304;6.606;2023-02-10T16:55:21;6.50;99.90
52285;DHT22;38238;53.304;6.606;2023-02-10T16:57:48;6.30;99.90
52285;DHT22;38238;53.304;6.606;2023-02-10T17:00:15;6.30;99.90
52285;DHT22;38238;53.304;6.606;2023-02-10T17:02:41;6.20;99.90
52285;DHT22;38238;53.304;6.606;2023-02-10T17:05:08;6.20;99.90
52285;DHT22;38238;53.304;6.606;2023-02-10T17:07:35;6.10;99.90
52285;DHT22;38238;53.304;6.606;2023-02-10T17:10:02;6.20;99.90
52285;DHT22;38238;53.304;6.606;2023-02-10T17:12:28;6.00;99.90
52285;DHT22;38238;53.304;6.606;2023-02-10T17:14:53;6.00;99.90
52285;DHT22;38238;53.304;6.606;2023-02-10T17:17:19;6.00;99.90
52285;DHT22;38238;53.304;6.606;2023-02-10T17:19:45;6.00;99.90
52285;DHT22;38238;53.304;6.606;2023-02-10T17:22:10;6.10;99.90
52285;DHT22;38238;53.304;6.606;2023-02-10T17:24:36;6.00;99.90
52285;DHT22;38238;53.304;6.606;2023-02-10T17:27:02;6.00;99.90
52285;DHT22;38238;53.304;6.606;2023-02-10T17:29:27;6.00;99.90
52285;DHT22;38238;53.304;6.606;2023-02-10T17:31:53;6.00;99.90
52285;DHT22;38238;53.304;6.606;2023-02-10T17:34:19;6.00;99.90
52285;DHT22;38238;53.304;6.606;2023-02-10T17:36:45;6.10;99.90
52285;DHT22;38238;53.304;6.606;2023-02-10T17:39:15;6.20;99.90
52285;DHT22;38238;53.304;6.606;2023-02-10T17:42:00;6.00;99.90
52285;DHT22;38238;53.304;6.606;2023-02-10T17:44:26;6.50;99.90
52285;DHT22;38238;53.304;6.606;2023-02-10T17:46:55;6.10;99.90
52285;DHT22;38238;53.304;6.606;2023-02-10T17:49:26;6.00;99.90
52285;DHT22;38238;53.304;6.606;2023-02-10T17:51:52;5.90;99.90
52285;DHT22;38238;53.304;6.606;2023-02-10T17:54:18;5.90;99.90
52285;DHT22;38238;53.304;6.606;2023-02-10T17:56:45;5.90;99.90
52285;DHT22;38238;53.304;6.606;2023-02-10T17:59:11;5.90;99.90
52285;DHT22;38238;53.304;6.606;2023-02-10T18:01:38;4.40;99.90
52285;DHT22;38238;53.304;6.606;2023-02-10T18:04:04;5.90;99.90